createdAt,value
2019-02-08T00:00:06.962Z,2.98
2019-02-08T00:01:03.990Z,2.98
2019-02-08T00:02:01.051Z,2.99
2019-02-08T00:02:59.029Z,2.98
2019-02-08T00:03:55.076Z,2.99
2019-02-08T00:04:52.103Z,2.99
2019-02-08T00:05:49.127Z,2.97
2019-02-08T00:06:46.153Z,2.99
2019-02-08T00:07:43.175Z,2.98
2019-02-08T00:08:40.205Z,2.98
2019-02-08T00:09:37.264Z,2.97
2019-02-08T00:10:34.267Z,2.98
2019-02-08T00:11:31.289Z,2.99
2019-02-08T00:12:28.308Z,2.99
2019-02-08T00:13:25.343Z,2.99
2019-02-08T00:14:22.405Z,2.98
2019-02-08T00:15:20.424Z,3.00
2019-02-08T00:16:16.425Z,3.00
2019-02-08T00:17:14.617Z,3.00
2019-02-08T00:18:10.608Z,3.01
2019-02-08T00:19:07.508Z,3.03
2019-02-08T00:20:04.617Z,3.03
2019-02-08T00:21:01.565Z,3.05
2019-02-08T00:21:58.618Z,3.06
2019-02-08T00:22:55.615Z,3.08
2019-02-08T00:23:52.638Z,3.10
2019-02-08T00:24:49.701Z,3.11
2019-02-08T00:25:46.704Z,3.11
2019-02-08T00:26:43.728Z,3.14
2019-02-08T00:27:40.756Z,3.16
2019-02-08T00:28:37.783Z,3.17
2019-02-08T00:29:34.815Z,3.19
2019-02-08T00:30:31.837Z,3.20
2019-02-08T00:31:28.867Z,3.20
2019-02-08T00:32:25.899Z,3.20
2019-02-08T00:33:22.918Z,3.23
2019-02-08T00:34:19.944Z,3.22
2019-02-08T00:35:16.970Z,3.23
2019-02-08T00:36:14.022Z,3.24
2019-02-08T00:37:11.037Z,3.25
2019-02-08T00:38:08.060Z,3.26
2019-02-08T00:39:05.097Z,3.27
2019-02-08T00:40:02.127Z,3.28
2019-02-08T00:40:59.425Z,3.31
2019-02-08T00:41:56.179Z,3.31
2019-02-08T00:42:53.204Z,3.33
2019-02-08T00:43:50.237Z,3.34
2019-02-08T00:44:47.251Z,3.36
2019-02-08T00:45:44.285Z,3.39
2019-02-08T00:46:41.315Z,3.43
2019-02-08T00:47:38.340Z,3.44
2019-02-08T00:48:35.363Z,3.46
2019-02-08T00:49:32.392Z,3.49
2019-02-08T00:50:30.426Z,3.50
2019-02-08T00:51:26.614Z,3.52
2019-02-08T00:52:23.477Z,3.53
2019-02-08T00:53:20.602Z,3.55
2019-02-08T00:54:17.530Z,3.57
2019-02-08T00:55:14.623Z,3.59
2019-02-08T00:56:11.606Z,3.59
2019-02-08T00:57:08.642Z,3.58
2019-02-08T00:58:05.633Z,3.59
2019-02-08T00:59:02.672Z,3.58
2019-02-08T00:59:59.706Z,3.58
2019-02-08T01:00:56.737Z,3.56
2019-02-08T01:01:53.751Z,3.55
2019-02-08T01:02:50.779Z,3.53
2019-02-08T01:03:47.810Z,3.52
2019-02-08T01:04:44.835Z,3.50
2019-02-08T01:05:41.868Z,3.49
2019-02-08T01:06:38.900Z,3.46
2019-02-08T01:07:35.924Z,3.43
2019-02-08T01:08:32.948Z,3.41
2019-02-08T01:09:29.978Z,3.38
2019-02-08T01:10:27.011Z,3.38
2019-02-08T01:11:24.034Z,3.33
2019-02-08T01:12:21.051Z,3.32
2019-02-08T01:13:18.673Z,3.30
2019-02-08T01:14:15.106Z,3.26
2019-02-08T01:15:12.143Z,3.26
2019-02-08T01:16:09.174Z,3.26
2019-02-08T01:17:06.204Z,3.25
2019-02-08T01:18:03.219Z,3.25
2019-02-08T01:19:00.256Z,3.25
2019-02-08T01:19:57.316Z,3.26
2019-02-08T01:20:54.324Z,3.26
2019-02-08T01:21:51.337Z,3.26
2019-02-08T01:22:48.366Z,3.26
2019-02-08T01:23:45.395Z,3.26
2019-02-08T01:24:42.425Z,3.27
2019-02-08T01:25:39.447Z,3.27
2019-02-08T01:26:36.487Z,3.27
2019-02-08T01:27:33.518Z,3.27
2019-02-08T01:28:30.607Z,3.28
2019-02-08T01:29:27.562Z,3.28
2019-02-08T01:30:24.614Z,3.26
2019-02-08T01:31:21.608Z,3.26
2019-02-08T01:32:18.677Z,3.24
2019-02-08T01:33:15.663Z,3.25
2019-02-08T01:34:12.705Z,3.24
2019-02-08T01:35:09.718Z,3.22
2019-02-08T01:36:06.762Z,3.21
2019-02-08T01:37:03.806Z,3.20
2019-02-08T01:38:00.835Z,3.20
2019-02-08T01:38:57.845Z,3.19
2019-02-08T01:39:54.874Z,3.18
2019-02-08T01:40:51.905Z,3.17
2019-02-08T01:41:48.951Z,3.16
2019-02-08T01:42:45.952Z,3.16
2019-02-08T01:43:42.973Z,3.15
2019-02-08T01:44:40.002Z,3.15
2019-02-08T01:45:37.034Z,3.13
2019-02-08T01:46:34.063Z,3.14
2019-02-08T01:47:31.099Z,3.14
2019-02-08T01:48:28.116Z,3.13
2019-02-08T01:49:25.147Z,3.14
2019-02-08T01:50:22.178Z,3.14
2019-02-08T01:51:19.191Z,3.13
2019-02-08T01:52:16.227Z,3.15
2019-02-08T01:53:13.253Z,3.15
2019-02-08T01:54:10.274Z,3.19
2019-02-08T01:55:07.317Z,3.19
2019-02-08T01:56:04.352Z,3.21
2019-02-08T01:57:01.381Z,3.23
2019-02-08T01:57:58.400Z,3.25
2019-02-08T01:58:56.416Z,3.25
2019-02-08T01:59:52.613Z,3.26
2019-02-08T02:00:49.488Z,3.29
2019-02-08T02:01:46.611Z,3.31
2019-02-08T02:02:43.535Z,3.32
2019-02-08T02:03:40.613Z,3.33
2019-02-08T02:04:37.594Z,3.35
2019-02-08T02:05:34.633Z,3.36
2019-02-08T02:06:31.638Z,3.36
2019-02-08T02:07:28.687Z,3.39
2019-02-08T02:08:25.706Z,3.40
2019-02-08T02:09:22.738Z,3.42
2019-02-08T02:10:20.747Z,3.42
2019-02-08T02:11:16.779Z,3.42
2019-02-08T02:12:13.818Z,3.42
2019-02-08T02:13:10.854Z,3.42
2019-02-08T02:14:07.867Z,3.41
2019-02-08T02:15:04.896Z,3.40
2019-02-08T02:16:01.915Z,3.38
2019-02-08T02:16:58.979Z,3.36
2019-02-08T02:17:55.980Z,3.34
2019-02-08T02:18:53.016Z,3.33
2019-02-08T02:19:50.035Z,3.31
2019-02-08T02:20:47.080Z,3.30
2019-02-08T02:21:44.106Z,3.26
2019-02-08T02:22:41.132Z,3.26
2019-02-08T02:23:38.149Z,3.25
2019-02-08T02:24:35.181Z,3.22
2019-02-08T02:25:32.200Z,3.21
2019-02-08T02:26:29.225Z,3.19
2019-02-08T02:27:26.257Z,3.19
2019-02-08T02:28:24.299Z,3.17
2019-02-08T02:29:20.601Z,3.15
2019-02-08T02:30:17.350Z,3.16
2019-02-08T02:31:14.364Z,3.15
2019-02-08T02:32:11.403Z,3.15
2019-02-08T02:33:08.416Z,3.14
2019-02-08T02:34:05.454Z,3.14
2019-02-08T02:35:02.600Z,3.14
2019-02-08T02:35:59.526Z,3.14
2019-02-08T02:36:56.610Z,3.14
2019-02-08T02:37:53.580Z,3.15
2019-02-08T02:38:50.617Z,3.15
2019-02-08T02:39:47.620Z,3.18
2019-02-08T02:40:44.666Z,3.18
2019-02-08T02:41:41.673Z,3.20
2019-02-08T02:42:38.704Z,3.22
2019-02-08T02:43:35.726Z,3.23
2019-02-08T02:44:32.757Z,3.24
2019-02-08T02:45:29.790Z,3.24
2019-02-08T02:46:26.816Z,3.25
2019-02-08T02:47:23.841Z,3.24
2019-02-08T02:48:20.871Z,3.23
2019-02-08T02:49:17.903Z,3.23
2019-02-08T02:50:14.923Z,3.22
2019-02-08T02:51:11.964Z,3.23
2019-02-08T02:52:08.986Z,3.23
2019-02-08T02:53:06.009Z,3.22
2019-02-08T02:54:04.840Z,3.21
2019-02-08T02:55:00.173Z,3.23
2019-02-08T02:55:57.084Z,3.22
2019-02-08T02:56:54.121Z,3.23
2019-02-08T02:57:51.146Z,3.22
2019-02-08T02:58:48.175Z,3.22
2019-02-08T02:59:45.199Z,3.22
2019-02-08T03:00:42.246Z,3.21
2019-02-08T03:01:39.257Z,3.21
2019-02-08T03:02:36.286Z,3.21
2019-02-08T03:03:33.309Z,3.20
2019-02-08T03:04:30.330Z,3.21
2019-02-08T03:05:27.378Z,3.20
2019-02-08T03:06:24.389Z,3.21
2019-02-08T03:07:21.422Z,3.21
2019-02-08T03:08:18.619Z,3.21
2019-02-08T03:09:16.613Z,3.21
2019-02-08T03:10:12.610Z,3.21
2019-02-08T03:11:09.537Z,3.21
2019-02-08T03:12:06.598Z,3.22
2019-02-08T03:13:03.595Z,3.22
2019-02-08T03:14:00.615Z,3.22
2019-02-08T03:14:57.637Z,3.22
2019-02-08T03:15:54.671Z,3.23
2019-02-08T03:16:51.702Z,3.24
2019-02-08T03:17:48.719Z,3.24
2019-02-08T03:18:45.756Z,3.25
2019-02-08T03:19:42.786Z,3.24
2019-02-08T03:20:39.834Z,3.25
2019-02-08T03:21:36.838Z,3.24
2019-02-08T03:22:33.857Z,3.25
2019-02-08T03:23:30.895Z,3.26
2019-02-08T03:24:27.923Z,3.26
2019-02-08T03:25:24.938Z,3.26
2019-02-08T03:26:21.973Z,3.26
2019-02-08T03:27:19.008Z,3.26
2019-02-08T03:28:16.043Z,3.26
2019-02-08T03:29:13.065Z,3.26
2019-02-08T03:30:10.091Z,3.26
2019-02-08T03:31:07.140Z,3.26
2019-02-08T03:32:04.149Z,3.26
2019-02-08T03:33:01.207Z,3.25
2019-02-08T03:33:58.199Z,3.24
2019-02-08T03:34:55.256Z,3.24
2019-02-08T03:35:52.250Z,3.24
2019-02-08T03:36:49.277Z,3.24
2019-02-08T03:37:46.332Z,3.23
2019-02-08T03:38:42.841Z,3.23
2019-02-08T03:39:40.370Z,3.23
2019-02-08T03:40:37.400Z,3.22
2019-02-08T03:41:34.456Z,3.22
2019-02-08T03:42:31.437Z,3.22
2019-02-08T03:43:28.631Z,3.20
2019-02-08T03:44:25.513Z,3.20
2019-02-08T03:45:22.615Z,3.17
2019-02-08T03:46:19.571Z,3.16
2019-02-08T03:47:16.602Z,3.17
2019-02-08T03:48:13.617Z,3.16
2019-02-08T03:49:11.638Z,3.13
2019-02-08T03:50:07.672Z,3.13
2019-02-08T03:51:04.715Z,3.10
2019-02-08T03:52:01.740Z,3.10
2019-02-08T03:52:58.756Z,3.10
2019-02-08T03:53:55.781Z,3.09
2019-02-08T03:54:52.816Z,3.08
2019-02-08T03:55:57.733Z,3.08
2019-02-08T03:56:46.878Z,3.07
2019-02-08T03:57:43.894Z,3.05
2019-02-08T03:58:40.926Z,3.06
2019-02-08T03:59:37.956Z,3.06
2019-02-08T04:00:34.986Z,3.06
2019-02-08T04:01:32.003Z,3.07
2019-02-08T04:02:28.544Z,3.08
2019-02-08T04:03:26.063Z,3.07
2019-02-08T04:04:23.082Z,3.09
2019-02-08T04:05:20.108Z,3.11
2019-02-08T04:06:17.145Z,3.11
2019-02-08T04:07:14.181Z,3.13
2019-02-08T04:08:11.214Z,3.15
2019-02-08T04:09:08.228Z,3.15
2019-02-08T04:10:05.272Z,3.17
2019-02-08T04:11:02.305Z,3.18
2019-02-08T04:11:59.328Z,3.19
2019-02-08T04:12:56.348Z,3.21
2019-02-08T04:13:54.389Z,3.24
2019-02-08T04:14:50.414Z,3.24
2019-02-08T04:15:47.441Z,3.25
2019-02-08T04:16:44.628Z,3.26
2019-02-08T04:17:41.485Z,3.26
2019-02-08T04:18:38.611Z,3.26
2019-02-08T04:19:35.542Z,3.26
2019-02-08T04:20:32.565Z,3.29
2019-02-08T04:21:29.583Z,3.28
2019-02-08T04:22:26.654Z,3.29
2019-02-08T04:23:23.645Z,3.30
2019-02-08T04:24:20.675Z,3.31
2019-02-08T04:25:17.706Z,3.32
2019-02-08T04:26:14.747Z,3.32
2019-02-08T04:27:11.793Z,3.34
2019-02-08T04:28:08.789Z,3.35
2019-02-08T04:29:05.806Z,3.36
2019-02-08T04:30:02.857Z,3.38
2019-02-08T04:30:59.880Z,3.38
2019-02-08T04:31:56.894Z,3.36
2019-02-08T04:32:53.937Z,3.38
2019-02-08T04:33:50.952Z,3.38
2019-02-08T04:34:47.983Z,3.39
2019-02-08T04:35:45.006Z,3.40
2019-02-08T04:36:42.044Z,3.41
2019-02-08T04:37:39.092Z,3.40
2019-02-08T04:38:36.097Z,3.40
2019-02-08T04:39:33.120Z,3.42
2019-02-08T04:40:30.157Z,3.43
2019-02-08T04:41:27.189Z,3.43
2019-02-08T04:42:24.210Z,3.44
2019-02-08T04:43:21.235Z,3.44
2019-02-08T04:44:18.253Z,3.44
2019-02-08T04:45:15.281Z,3.46
2019-02-08T04:46:12.326Z,3.49
2019-02-08T04:47:10.333Z,3.49
2019-02-08T04:48:06.377Z,3.49
2019-02-08T04:49:03.446Z,3.50
2019-02-08T04:50:00.429Z,3.51
2019-02-08T04:50:57.460Z,3.52
2019-02-08T04:51:54.500Z,3.53
2019-02-08T04:52:51.524Z,3.54
2019-02-08T04:53:48.614Z,3.54
2019-02-08T04:54:45.076Z,3.56
2019-02-08T04:55:42.620Z,3.57
2019-02-08T04:56:39.624Z,3.59
2019-02-08T04:57:36.674Z,3.60
2019-02-08T04:58:35.759Z,3.61
2019-02-08T04:59:30.710Z,3.63
2019-02-08T05:00:27.738Z,3.63
2019-02-08T05:01:24.755Z,3.64
2019-02-08T05:02:21.786Z,3.65
2019-02-08T05:03:18.816Z,3.65
2019-02-08T05:04:15.834Z,3.63
2019-02-08T05:05:12.881Z,3.66
2019-02-08T05:06:09.891Z,3.67
2019-02-08T05:07:06.922Z,3.66
2019-02-08T05:08:03.967Z,3.68
2019-02-08T05:09:00.987Z,3.68
2019-02-08T05:09:58.011Z,3.67
2019-02-08T05:10:55.049Z,3.69
2019-02-08T05:11:52.079Z,3.69
2019-02-08T05:12:49.143Z,3.70
2019-02-08T05:13:46.134Z,3.70
2019-02-08T05:14:43.146Z,3.70
2019-02-08T05:15:40.183Z,3.71
2019-02-08T05:16:37.194Z,3.70
2019-02-08T05:17:34.265Z,3.71
2019-02-08T05:18:31.081Z,3.70
2019-02-08T05:19:28.276Z,3.71
2019-02-08T05:20:25.317Z,3.72
2019-02-08T05:21:22.335Z,3.72
2019-02-08T05:22:19.367Z,3.73
2019-02-08T05:23:16.398Z,3.73
2019-02-08T05:24:12.929Z,3.74
2019-02-08T05:25:11.446Z,3.74
2019-02-08T05:26:07.591Z,3.73
2019-02-08T05:27:04.602Z,3.76
2019-02-08T05:28:01.545Z,3.76
2019-02-08T05:28:58.612Z,3.75
2019-02-08T05:29:55.605Z,3.77
2019-02-08T05:30:52.625Z,3.78
2019-02-08T05:31:49.668Z,3.78
2019-02-08T05:32:46.664Z,3.79
2019-02-08T05:33:43.715Z,3.79
2019-02-08T05:34:40.726Z,3.79
2019-02-08T05:35:37.793Z,3.78
2019-02-08T05:36:34.793Z,3.79
2019-02-08T05:37:31.805Z,3.79
2019-02-08T05:38:28.855Z,3.79
2019-02-08T05:39:25.883Z,3.80
2019-02-08T05:40:22.902Z,3.80
2019-02-08T05:41:19.937Z,3.80
2019-02-08T05:42:16.949Z,3.79
2019-02-08T05:43:13.978Z,3.80
2019-02-08T05:44:11.022Z,3.80
2019-02-08T05:45:08.051Z,3.81
2019-02-08T05:46:05.056Z,3.81
2019-02-08T05:47:02.102Z,3.82
2019-02-08T05:47:58.625Z,3.84
2019-02-08T05:48:56.158Z,3.83
2019-02-08T05:49:53.184Z,3.82
2019-02-08T05:50:50.206Z,3.82
2019-02-08T05:51:47.241Z,3.84
2019-02-08T05:52:44.262Z,3.84
2019-02-08T05:53:41.328Z,3.85
2019-02-08T05:54:38.330Z,3.85
2019-02-08T05:55:35.350Z,3.84
2019-02-08T05:56:32.374Z,3.86
2019-02-08T05:57:29.424Z,3.86
2019-02-08T05:58:26.429Z,3.85
2019-02-08T05:59:23.458Z,3.86
2019-02-08T06:00:20.606Z,3.85
2019-02-08T06:01:17.520Z,3.88
2019-02-08T06:02:14.624Z,3.88
2019-02-08T06:03:11.572Z,3.88
2019-02-08T06:04:08.608Z,3.89
2019-02-08T06:05:05.626Z,3.88
2019-02-08T06:06:02.666Z,3.89
2019-02-08T06:06:59.683Z,3.91
2019-02-08T06:07:56.703Z,3.92
2019-02-08T06:08:53.735Z,3.92
2019-02-08T06:09:51.772Z,3.91
2019-02-08T06:10:47.798Z,3.92
2019-02-08T06:11:44.834Z,3.94
2019-02-08T06:12:41.847Z,3.93
2019-02-08T06:13:38.861Z,3.93
2019-02-08T06:14:35.907Z,3.94
2019-02-08T06:15:32.935Z,3.95
2019-02-08T06:16:29.957Z,3.93
2019-02-08T06:17:27.006Z,3.92
2019-02-08T06:18:24.022Z,3.94
2019-02-08T06:19:21.052Z,3.95
2019-02-08T06:20:18.076Z,3.94
2019-02-08T06:21:15.105Z,3.94
2019-02-08T06:22:12.128Z,3.94
2019-02-08T06:23:09.156Z,3.94
2019-02-08T06:24:06.167Z,3.93
2019-02-08T06:25:04.544Z,3.93
2019-02-08T06:26:00.229Z,3.92
2019-02-08T06:26:57.265Z,3.93
2019-02-08T06:27:54.307Z,3.91
2019-02-08T06:28:51.319Z,3.93
2019-02-08T06:29:48.349Z,3.92
2019-02-08T06:30:45.374Z,3.92
2019-02-08T06:31:42.407Z,3.93
2019-02-08T06:32:39.438Z,3.93
2019-02-08T06:33:36.685Z,3.94
2019-02-08T06:34:33.478Z,3.94
2019-02-08T06:35:30.518Z,3.93
2019-02-08T06:36:27.529Z,3.96
2019-02-08T06:37:24.630Z,3.94
2019-02-08T06:38:22.605Z,3.97
2019-02-08T06:39:18.629Z,3.98
2019-02-08T06:40:15.665Z,3.98
2019-02-08T06:41:12.675Z,4.00
2019-02-08T06:42:09.698Z,4.00
2019-02-08T06:43:06.728Z,4.01
2019-02-08T06:44:03.759Z,4.03
2019-02-08T06:45:00.794Z,4.05
2019-02-08T06:45:57.822Z,4.05
2019-02-08T06:46:54.846Z,4.07
2019-02-08T06:47:51.882Z,4.09
2019-02-08T06:48:48.900Z,4.09
2019-02-08T06:49:45.931Z,4.09
2019-02-08T06:50:42.965Z,4.11
2019-02-08T06:51:39.990Z,4.13
2019-02-08T06:52:37.008Z,4.15
2019-02-08T06:53:34.026Z,4.17
2019-02-08T06:54:31.058Z,4.17
2019-02-08T06:55:28.111Z,4.19
2019-02-08T06:56:25.118Z,4.21
2019-02-08T06:57:22.149Z,4.23
2019-02-08T06:58:19.180Z,4.23
2019-02-08T06:59:16.206Z,4.26
2019-02-08T07:00:13.236Z,4.26
2019-02-08T07:01:10.268Z,4.28
2019-02-08T07:02:07.298Z,4.28
2019-02-08T07:03:04.319Z,4.30
2019-02-08T07:04:01.349Z,4.30
2019-02-08T07:04:58.372Z,4.32
2019-02-08T07:05:55.393Z,4.34
2019-02-08T07:06:52.427Z,4.34
2019-02-08T07:07:49.464Z,4.34
2019-02-08T07:08:46.603Z,4.36
2019-02-08T07:09:43.515Z,4.36
2019-02-08T07:10:41.491Z,4.38
2019-02-08T07:11:37.578Z,4.38
2019-02-08T07:12:34.612Z,4.40
2019-02-08T07:13:32.617Z,4.40
2019-02-08T07:14:28.645Z,4.42
2019-02-08T07:15:25.191Z,4.42
2019-02-08T07:16:22.716Z,4.44
2019-02-08T07:17:19.734Z,4.44
2019-02-08T07:18:16.768Z,4.46
2019-02-08T07:19:13.791Z,4.46
2019-02-08T07:20:10.820Z,4.44
2019-02-08T07:21:07.853Z,4.48
2019-02-08T07:22:04.880Z,4.48
2019-02-08T07:23:01.901Z,4.48
2019-02-08T07:23:58.930Z,4.50
2019-02-08T07:24:55.953Z,4.48
2019-02-08T07:25:52.994Z,4.52
2019-02-08T07:26:50.028Z,4.53
2019-02-08T07:27:47.047Z,4.55
2019-02-08T07:28:44.075Z,4.57
2019-02-08T07:29:41.111Z,4.57
2019-02-08T07:30:38.120Z,4.59
2019-02-08T07:31:35.168Z,4.61
2019-02-08T07:32:33.177Z,4.63
2019-02-08T07:33:29.207Z,4.63
2019-02-08T07:34:26.246Z,4.65
2019-02-08T07:35:24.251Z,4.67
2019-02-08T07:36:20.330Z,4.69
2019-02-08T07:37:17.330Z,4.71
2019-02-08T07:38:14.352Z,4.71
2019-02-08T07:39:11.372Z,4.73
2019-02-08T07:40:09.394Z,4.76
2019-02-08T07:41:05.427Z,4.78
2019-02-08T07:42:02.629Z,4.82
2019-02-08T07:42:59.486Z,4.84
2019-02-08T07:43:56.499Z,4.88
2019-02-08T07:44:53.538Z,4.90
2019-02-08T07:45:50.613Z,4.92
2019-02-08T07:46:47.581Z,4.94
2019-02-08T07:47:44.629Z,4.98
2019-02-08T07:48:41.645Z,5.01
2019-02-08T07:49:38.679Z,5.03
2019-02-08T07:50:35.708Z,5.03
2019-02-08T07:51:33.723Z,5.05
2019-02-08T07:52:29.770Z,5.07
2019-02-08T07:53:26.793Z,5.07
2019-02-08T07:54:23.804Z,5.07
2019-02-08T07:55:26.018Z,5.11
2019-02-08T07:56:17.866Z,5.15
2019-02-08T07:57:14.903Z,5.19
2019-02-08T07:58:11.924Z,5.21
2019-02-08T07:59:08.953Z,5.26
2019-02-08T08:00:05.982Z,5.28
2019-02-08T08:01:03.013Z,5.32
2019-02-08T08:02:00.062Z,5.38
2019-02-08T08:02:57.075Z,5.42
2019-02-08T08:04:00.990Z,5.44
2019-02-08T08:04:51.116Z,5.50
2019-02-08T08:05:48.158Z,5.52
2019-02-08T08:06:45.166Z,5.55
2019-02-08T08:07:42.212Z,5.55
2019-02-08T08:08:39.231Z,5.57
2019-02-08T08:09:36.249Z,5.63
2019-02-08T08:10:33.285Z,5.67
2019-02-08T08:11:30.315Z,5.73
2019-02-08T08:12:27.356Z,5.76
2019-02-08T08:13:23.879Z,5.78
2019-02-08T08:14:21.389Z,5.78
2019-02-08T08:15:18.434Z,5.80
2019-02-08T08:16:15.449Z,5.82
2019-02-08T08:17:12.611Z,5.84
2019-02-08T08:18:09.517Z,5.86
2019-02-08T08:19:06.620Z,5.86
2019-02-08T08:20:03.563Z,5.84
2019-02-08T08:21:00.596Z,5.82
2019-02-08T08:21:57.629Z,5.82
2019-02-08T08:22:54.695Z,5.84
2019-02-08T08:23:51.680Z,5.84
2019-02-08T08:24:48.228Z,5.84
2019-02-08T08:25:45.733Z,5.82
2019-02-08T08:26:42.750Z,5.82
2019-02-08T08:27:39.815Z,5.80
2019-02-08T08:28:36.844Z,5.80
2019-02-08T08:29:33.834Z,5.80
2019-02-08T08:30:30.869Z,5.80
2019-02-08T08:31:27.908Z,5.82
2019-02-08T08:32:24.927Z,5.82
2019-02-08T08:33:21.956Z,5.82
2019-02-08T08:34:18.976Z,5.82
2019-02-08T08:35:16.013Z,5.84
2019-02-08T08:36:13.038Z,5.84
2019-02-08T08:37:10.059Z,5.84
2019-02-08T08:38:07.094Z,5.84
2019-02-08T08:39:05.444Z,5.84
2019-02-08T08:40:02.155Z,5.86
2019-02-08T08:40:58.175Z,5.84
2019-02-08T08:41:55.212Z,5.86
2019-02-08T08:42:52.224Z,5.88
2019-02-08T08:43:49.268Z,5.92
2019-02-08T08:44:46.284Z,5.94
2019-02-08T08:45:43.305Z,5.96
2019-02-08T08:46:40.339Z,5.98
2019-02-08T08:47:37.377Z,6.03
2019-02-08T08:48:34.405Z,6.07
2019-02-08T08:49:31.423Z,6.13
2019-02-08T08:50:28.608Z,6.17
2019-02-08T08:51:25.486Z,6.23
2019-02-08T08:52:22.605Z,6.26
2019-02-08T08:53:19.543Z,6.30
2019-02-08T08:54:16.608Z,6.36
2019-02-08T08:55:13.588Z,6.40
2019-02-08T08:56:10.605Z,6.44
2019-02-08T08:57:07.641Z,6.51
2019-02-08T08:58:04.753Z,6.55
2019-02-08T08:59:01.709Z,6.59
2019-02-08T08:59:58.736Z,6.63
2019-02-08T09:00:55.758Z,6.65
2019-02-08T09:01:52.780Z,6.67
2019-02-08T09:02:49.797Z,6.67
2019-02-08T09:03:46.828Z,6.69
2019-02-08T09:04:43.882Z,6.71
2019-02-08T09:05:40.918Z,6.71
2019-02-08T09:06:37.911Z,6.73
2019-02-08T09:07:34.948Z,6.75
2019-02-08T09:08:31.987Z,6.76
2019-02-08T09:09:29.995Z,6.77
2019-02-08T09:10:26.062Z,6.80
2019-02-08T09:11:23.135Z,6.82
2019-02-08T09:12:20.091Z,6.82
2019-02-08T09:13:17.111Z,6.80
2019-02-08T09:16:08.192Z,6.82
2019-02-08T09:17:05.234Z,6.79
2019-02-08T09:18:02.252Z,6.80
2019-02-08T09:18:59.280Z,6.80
2019-02-08T09:19:56.303Z,6.82
2019-02-08T09:20:53.347Z,6.84
2019-02-08T09:21:50.359Z,6.86
2019-02-08T09:22:47.392Z,6.86
2019-02-08T09:23:44.408Z,6.86
2019-02-08T09:24:41.433Z,6.86
2019-02-08T09:25:38.624Z,6.86
2019-02-08T09:26:35.486Z,6.84
2019-02-08T09:27:32.601Z,6.86
2019-02-08T09:28:29.556Z,6.84
2019-02-08T09:29:26.620Z,6.84
2019-02-08T09:30:23.610Z,6.82
2019-02-08T09:31:20.652Z,6.82
2019-02-08T09:32:17.655Z,6.84
2019-02-08T09:33:14.683Z,6.84
2019-02-08T09:34:11.722Z,6.86
2019-02-08T09:35:08.737Z,6.88
2019-02-08T09:36:05.779Z,6.90
2019-02-08T09:37:02.802Z,6.96
2019-02-08T09:37:59.844Z,7.00
2019-02-08T09:38:56.867Z,7.05
2019-02-08T09:39:53.885Z,7.07
2019-02-08T09:40:50.923Z,7.05
2019-02-08T09:41:47.953Z,7.05
2019-02-08T09:42:44.963Z,7.03
2019-02-08T09:43:41.989Z,6.98
2019-02-08T09:44:39.017Z,6.96
2019-02-08T09:45:36.041Z,6.94
2019-02-08T09:46:33.111Z,6.92
2019-02-08T09:47:30.104Z,6.92
2019-02-08T09:48:27.135Z,6.94
2019-02-08T09:49:23.664Z,6.92
2019-02-08T09:50:21.198Z,6.90
2019-02-08T09:51:18.235Z,6.90
2019-02-08T09:52:15.235Z,6.88
2019-02-08T09:53:12.269Z,6.84
2019-02-08T09:54:09.341Z,6.82
2019-02-08T09:55:06.316Z,6.80
2019-02-08T09:56:03.347Z,6.80
2019-02-08T09:57:00.388Z,6.79
2019-02-08T09:57:57.413Z,6.80
2019-02-08T09:58:55.444Z,6.80
2019-02-08T09:59:51.466Z,6.80
2019-02-08T10:00:48.618Z,6.80
2019-02-08T10:01:45.534Z,6.80
2019-02-08T10:02:42.607Z,6.84
2019-02-08T10:03:39.575Z,6.86
2019-02-08T10:04:36.613Z,6.86
2019-02-08T10:05:33.621Z,6.86
2019-02-08T10:06:30.704Z,6.86
2019-02-08T10:07:27.691Z,6.88
2019-02-08T10:08:24.712Z,6.84
2019-02-08T10:09:21.743Z,6.84
2019-02-08T10:10:18.778Z,6.82
2019-02-08T10:11:15.792Z,6.80
2019-02-08T10:12:12.823Z,6.80
2019-02-08T10:13:09.846Z,6.80
2019-02-08T10:14:06.885Z,6.79
2019-02-08T10:15:04.895Z,6.80
2019-02-08T10:16:00.931Z,6.79
2019-02-08T10:16:57.971Z,6.82
2019-02-08T10:17:54.993Z,6.84
2019-02-08T10:18:52.017Z,6.86
2019-02-08T10:19:49.056Z,6.86
2019-02-08T10:20:46.074Z,6.86
2019-02-08T10:21:43.101Z,6.86
2019-02-08T10:22:40.145Z,6.86
2019-02-08T10:23:37.156Z,6.88
2019-02-08T10:24:34.173Z,6.92
2019-02-08T10:25:31.212Z,6.96
2019-02-08T10:26:28.236Z,7.01
2019-02-08T10:27:25.272Z,7.03
2019-02-08T10:28:22.295Z,7.07
2019-02-08T10:29:19.319Z,7.09
2019-02-08T10:30:16.346Z,7.11
2019-02-08T10:31:13.366Z,7.17
2019-02-08T10:32:10.400Z,7.21
2019-02-08T10:33:07.433Z,7.23
2019-02-08T10:34:04.628Z,7.28
2019-02-08T10:35:01.474Z,7.28
2019-02-08T10:35:58.608Z,7.30
2019-02-08T10:36:55.542Z,7.30
2019-02-08T10:37:52.638Z,7.30
2019-02-08T10:38:49.592Z,7.30
2019-02-08T10:39:46.630Z,7.30
2019-02-08T10:40:43.648Z,7.30
2019-02-08T10:41:40.720Z,7.30
2019-02-08T10:42:37.717Z,7.32
2019-02-08T10:43:34.723Z,7.32
2019-02-08T10:44:31.760Z,7.34
2019-02-08T10:45:28.808Z,7.34
2019-02-08T10:46:25.825Z,7.36
2019-02-08T10:47:22.843Z,7.36
2019-02-08T10:48:19.872Z,7.38
2019-02-08T10:49:16.913Z,7.38
2019-02-08T10:50:13.936Z,7.38
2019-02-08T10:51:10.954Z,7.38
2019-02-08T10:52:08.052Z,7.38
2019-02-08T10:53:05.010Z,7.38
2019-02-08T10:54:02.034Z,7.38
2019-02-08T10:54:59.050Z,7.38
2019-02-08T10:55:56.089Z,7.36
2019-02-08T10:56:53.143Z,7.36
2019-02-08T10:57:50.160Z,7.36
2019-02-08T10:58:47.177Z,7.36
2019-02-08T10:59:44.193Z,7.38
2019-02-08T11:00:41.215Z,7.40
2019-02-08T11:01:41.833Z,7.42
2019-02-08T11:02:35.288Z,7.42
2019-02-08T11:03:32.310Z,7.40
2019-02-08T11:04:29.334Z,7.40
2019-02-08T11:05:26.365Z,7.38
2019-02-08T11:06:23.396Z,7.38
2019-02-08T11:07:27.549Z,7.36
2019-02-08T11:08:17.454Z,7.38
2019-02-08T11:09:14.616Z,7.40
2019-02-08T11:10:11.508Z,7.42
2019-02-08T11:11:08.608Z,7.42
2019-02-08T11:12:05.560Z,7.44
2019-02-08T11:13:02.622Z,7.46
2019-02-08T11:13:59.610Z,7.50
2019-02-08T11:14:56.639Z,7.57
2019-02-08T11:15:53.671Z,7.63
2019-02-08T11:16:51.460Z,7.69
2019-02-08T11:17:47.736Z,7.75
2019-02-08T11:18:44.760Z,7.82
2019-02-08T11:19:41.817Z,7.84
2019-02-08T11:20:38.804Z,7.90
2019-02-08T11:21:35.829Z,7.92
2019-02-08T11:22:32.851Z,7.98
2019-02-08T11:23:29.902Z,8.02
2019-02-08T11:24:26.410Z,8.06
2019-02-08T11:25:23.944Z,8.09
2019-02-08T11:26:23.162Z,8.13
2019-02-08T11:27:18.000Z,8.14
2019-02-08T11:28:15.049Z,8.14
2019-02-08T11:29:12.051Z,8.15
2019-02-08T11:30:09.082Z,8.18
2019-02-08T11:31:06.103Z,8.19
2019-02-08T11:32:03.121Z,8.19
2019-02-08T11:33:00.157Z,8.21
2019-02-08T11:33:57.194Z,8.21
2019-02-08T11:34:54.213Z,8.22
2019-02-08T11:35:51.253Z,8.22
2019-02-08T11:36:48.277Z,8.21
2019-02-08T11:37:45.300Z,8.17
2019-02-08T11:38:42.338Z,8.14
2019-02-08T11:39:39.411Z,8.10
2019-02-08T11:40:36.385Z,8.06
2019-02-08T11:41:33.416Z,8.03
2019-02-08T11:42:30.429Z,8.01
2019-02-08T11:43:27.454Z,7.96
2019-02-08T11:44:24.622Z,7.94
2019-02-08T11:45:21.516Z,7.90
2019-02-08T11:46:18.610Z,7.88
2019-02-08T11:47:15.571Z,7.86
2019-02-08T11:48:12.613Z,7.82
2019-02-08T11:49:09.645Z,7.80
2019-02-08T11:50:06.668Z,7.77
2019-02-08T11:51:03.686Z,7.77
2019-02-08T11:52:00.721Z,7.75
2019-02-08T11:52:57.252Z,7.73
2019-02-08T11:53:54.779Z,7.71
2019-02-08T11:54:51.801Z,7.71
2019-02-08T11:55:48.821Z,7.69
2019-02-08T11:56:45.846Z,7.69
2019-02-08T11:57:42.886Z,7.67
2019-02-08T11:58:39.914Z,7.69
2019-02-08T11:59:36.953Z,7.69
2019-02-08T12:00:33.959Z,7.69
2019-02-08T12:01:30.982Z,7.71
2019-02-08T12:02:28.014Z,7.71
2019-02-08T12:03:25.042Z,7.73
2019-02-08T12:04:22.075Z,7.73
2019-02-08T12:05:19.093Z,7.71
2019-02-08T12:06:16.127Z,7.69
2019-02-08T12:07:13.155Z,7.71
2019-02-08T12:08:11.179Z,7.69
2019-02-08T12:09:07.202Z,7.69
2019-02-08T12:10:04.251Z,7.71
2019-02-08T12:11:01.264Z,7.71
2019-02-08T12:11:58.299Z,7.71
2019-02-08T12:12:55.307Z,7.73
2019-02-08T12:13:52.345Z,7.75
2019-02-08T12:14:49.382Z,7.77
2019-02-08T12:15:46.397Z,7.80
2019-02-08T12:16:43.437Z,7.84
2019-02-08T12:17:40.612Z,7.86
2019-02-08T12:18:37.485Z,7.88
2019-02-08T12:19:34.611Z,7.90
2019-02-08T12:20:31.549Z,7.90
2019-02-08T12:21:28.618Z,7.90
2019-02-08T12:22:25.594Z,7.90
2019-02-08T12:23:22.638Z,7.92
2019-02-08T12:24:19.651Z,7.92
2019-02-08T12:25:16.682Z,7.94
2019-02-08T12:26:13.704Z,7.96
2019-02-08T12:27:10.746Z,7.96
2019-02-08T12:28:07.264Z,7.98
2019-02-08T12:29:04.776Z,8.01
2019-02-08T12:30:01.819Z,8.02
2019-02-08T12:30:58.865Z,8.06
2019-02-08T12:31:55.873Z,8.11
2019-02-08T12:32:52.920Z,8.18
2019-02-08T12:33:50.036Z,8.26
2019-02-08T12:34:46.951Z,8.32
2019-02-08T12:35:43.991Z,8.40
2019-02-08T12:36:41.008Z,8.51
2019-02-08T12:37:38.033Z,8.57
2019-02-08T12:38:35.079Z,8.60
2019-02-08T12:39:32.082Z,8.64
2019-02-08T12:40:29.123Z,8.67